createdAt,value
2018-08-06T00:00:19.672Z,101522.78
2018-08-06T00:03:24.705Z,101525.22
2018-08-06T00:06:29.960Z,101525.69
2018-08-06T00:09:35.134Z,101529.13
2018-08-06T00:12:40.120Z,101525.08
2018-08-06T00:15:45.262Z,101521.75
2018-08-06T00:18:50.830Z,101530.38
2018-08-06T00:21:55.980Z,101528.34
2018-08-06T00:25:01.875Z,101529.34
2018-08-06T00:28:07.699Z,101523.06
2018-08-06T00:31:13.761Z,101522.33
2018-08-06T00:34:18.566Z,101519.73
2018-08-06T00:37:24.141Z,101518.37
2018-08-06T00:40:29.768Z,101511.95
2018-08-06T00:43:34.938Z,101507.89
2018-08-06T00:46:40.152Z,101512.52
2018-08-06T00:49:45.369Z,101509.55
2018-08-06T00:52:50.182Z,101510.48
2018-08-06T00:55:55.420Z,101513.55
2018-08-06T00:59:00.270Z,101507.42
2018-08-06T01:02:05.829Z,101505.39
2018-08-06T01:05:12.077Z,101497.41
2018-08-06T01:08:17.524Z,101503.07
2018-08-06T01:11:23.380Z,101501.50
2018-08-06T01:14:28.153Z,101495.69
2018-08-06T01:17:33.387Z,101504.94
2018-08-06T01:20:38.537Z,101504.77
2018-08-06T01:23:43.355Z,101506.23
2018-08-06T01:26:48.379Z,101506.80
2018-08-06T01:29:53.209Z,101504.87
2018-08-06T01:32:58.400Z,101505.91
2018-08-06T01:36:04.098Z,101501.81
2018-08-06T01:39:12.232Z,101502.48
2018-08-06T01:42:17.632Z,101501.84
2018-08-06T01:45:23.464Z,101501.84
2018-08-06T01:48:29.210Z,101492.67
2018-08-06T01:51:34.844Z,101499.98
2018-08-06T01:54:39.682Z,101495.27
2018-08-06T01:57:45.341Z,101498.69
2018-08-06T02:00:50.941Z,101494.99
2018-08-06T02:03:57.898Z,101489.73
2018-08-06T02:07:02.727Z,101491.50
2018-08-06T02:10:10.761Z,101487.77
2018-08-06T02:13:17.007Z,101487.41
2018-08-06T02:16:21.855Z,101485.38
2018-08-06T02:19:27.291Z,101479.98
2018-08-06T02:22:35.216Z,101480.14
2018-08-06T02:25:41.033Z,101482.56
2018-08-06T02:28:46.548Z,101476.72
2018-08-06T02:31:51.481Z,101471.83
2018-08-06T02:34:56.589Z,101472.55
2018-08-06T02:38:02.233Z,101468.48
2018-08-06T02:41:07.059Z,101460.54
2018-08-06T02:44:12.038Z,101454.98
2018-08-06T02:47:17.406Z,101459.80
2018-08-06T02:50:23.191Z,101460.80
2018-08-06T02:53:29.230Z,101454.97
2018-08-06T02:56:34.935Z,101454.80
2018-08-06T02:59:40.238Z,101449.88
2018-08-06T03:02:47.623Z,101449.97
2018-08-06T03:05:54.286Z,101443.31
2018-08-06T03:08:59.585Z,101446.47
2018-08-06T03:12:05.608Z,101446.25
2018-08-06T03:15:11.485Z,101448.20
2018-08-06T03:18:16.281Z,101451.63
2018-08-06T03:21:21.810Z,101448.92
2018-08-06T03:24:26.599Z,101445.41
2018-08-06T03:27:32.467Z,101447.08
2018-08-06T03:30:37.255Z,101443.63
2018-08-06T03:33:42.111Z,101438.55
2018-08-06T03:36:47.787Z,101447.89
2018-08-06T03:39:52.926Z,101443.42
2018-08-06T03:42:58.102Z,101445.37
2018-08-06T03:46:02.905Z,101440.19
2018-08-06T03:49:07.735Z,101442.13
2018-08-06T03:52:13.368Z,101448.30
2018-08-06T03:55:18.838Z,101435.53
2018-08-06T03:58:24.190Z,101438.50
2018-08-06T04:01:29.340Z,101431.47
2018-08-06T04:04:35.201Z,101433.01
2018-08-06T04:07:40.554Z,101433.84
2018-08-06T04:10:46.718Z,101433.01
2018-08-06T04:13:52.349Z,101431.41
2018-08-06T04:16:57.129Z,101435.75
2018-08-06T04:20:02.470Z,101432.61
2018-08-06T04:23:07.840Z,101433.67
2018-08-06T04:26:12.617Z,101436.73
2018-08-06T04:29:17.653Z,101430.02
2018-08-06T04:32:22.522Z,101439.13
2018-08-06T04:35:27.683Z,101432.02
2018-08-06T04:38:33.343Z,101431.55
2018-08-06T04:41:38.315Z,101433.86
2018-08-06T04:44:43.695Z,101431.92
2018-08-06T04:47:48.490Z,101434.14
2018-08-06T04:50:53.786Z,101437.55
2018-08-06T04:53:58.590Z,101437.92
2018-08-06T04:57:03.942Z,101437.00
2018-08-06T05:00:11.011Z,101437.47
2018-08-06T05:03:16.850Z,101439.46
2018-08-06T05:06:22.065Z,101441.03
2018-08-06T05:09:26.898Z,101439.13
2018-08-06T05:12:32.571Z,101440.52
2018-08-06T05:15:37.748Z,101436.27
2018-08-06T05:18:42.882Z,101447.03
2018-08-06T05:21:47.969Z,101445.95
2018-08-06T05:24:53.437Z,101446.73
2018-08-06T05:27:58.681Z,101448.30
2018-08-06T05:31:04.517Z,101448.02
2018-08-06T05:34:10.547Z,101449.03
2018-08-06T05:37:15.645Z,101443.80
2018-08-06T05:40:21.017Z,101443.61
2018-08-06T05:43:26.430Z,101448.82
2018-08-06T05:46:32.335Z,101450.66
2018-08-06T05:49:37.773Z,101452.91
2018-08-06T05:52:43.968Z,101459.02
2018-08-06T05:55:50.683Z,101462.55
2018-08-06T05:58:56.786Z,101464.77
2018-08-06T06:02:02.470Z,101469.03
2018-08-06T06:05:07.538Z,101470.63
2018-08-06T06:08:12.833Z,101464.06
2018-08-06T06:11:17.981Z,101466.17
2018-08-06T06:14:23.104Z,101462.75
2018-08-06T06:17:29.117Z,101464.05
2018-08-06T06:20:35.133Z,101461.56
2018-08-06T06:23:41.005Z,101456.84
2018-08-06T06:26:46.333Z,101453.13
2018-08-06T06:29:52.526Z,101454.88
2018-08-06T06:32:58.116Z,101450.59
2018-08-06T06:36:03.217Z,101449.39
2018-08-06T06:39:10.376Z,101450.75
2018-08-06T06:42:15.705Z,101458.16
2018-08-06T06:45:21.872Z,101451.27
2018-08-06T06:48:27.761Z,101457.84
2018-08-06T06:51:34.130Z,101456.50
2018-08-06T06:54:40.318Z,101449.84
2018-08-06T06:57:47.737Z,101452.75
2018-08-06T07:00:52.845Z,101452.73
2018-08-06T07:03:58.981Z,101446.78
2018-08-06T07:07:04.101Z,101445.06
2018-08-06T07:10:11.633Z,101444.31
2018-08-06T07:13:17.097Z,101440.50
2018-08-06T07:16:22.435Z,101443.53
2018-08-06T07:19:29.022Z,101441.45
2018-08-06T07:22:34.954Z,101440.59
2018-08-06T07:25:41.134Z,101437.20
2018-08-06T07:28:47.023Z,101435.03
2018-08-06T07:31:53.194Z,101432.00
2018-08-06T07:34:58.878Z,101433.73
2018-08-06T07:38:04.989Z,101432.86
2018-08-06T07:41:10.902Z,101425.09
2018-08-06T07:44:16.859Z,101427.17
2018-08-06T07:47:22.518Z,101428.03
2018-08-06T07:50:27.620Z,101427.15
2018-08-06T07:53:32.429Z,101423.08
2018-08-06T07:56:37.749Z,101428.67
2018-08-06T07:59:43.901Z,101423.44
2018-08-06T08:02:48.973Z,101424.20
2018-08-06T08:05:54.416Z,101416.66
2018-08-06T08:09:00.753Z,101415.54
2018-08-06T08:12:06.470Z,101409.32
2018-08-06T08:15:14.321Z,101418.13
2018-08-06T08:18:19.804Z,101410.22
2018-08-06T08:21:24.650Z,101405.64
2018-08-06T08:24:30.168Z,101402.25
2018-08-06T08:27:36.736Z,101406.78
2018-08-06T08:30:43.789Z,101406.02
2018-08-06T08:33:49.819Z,101404.98
2018-08-06T08:36:55.725Z,101401.92
2018-08-06T08:40:01.742Z,101397.67
2018-08-06T08:43:07.374Z,101393.77
2018-08-06T08:46:12.481Z,101393.30
2018-08-06T08:49:18.149Z,101391.05
2018-08-06T08:52:24.667Z,101391.52
2018-08-06T08:55:30.213Z,101380.98
2018-08-06T08:58:35.488Z,101384.05
2018-08-06T09:01:41.700Z,101378.80
2018-08-06T09:04:47.156Z,101378.77
2018-08-06T09:07:53.565Z,101367.46
2018-08-06T09:10:59.380Z,101369.55
2018-08-06T09:14:04.546Z,101369.85
2018-08-06T09:17:09.569Z,101367.56
2018-08-06T09:20:14.664Z,101360.15
2018-08-06T09:23:20.609Z,101359.95
2018-08-06T09:26:26.414Z,101356.30
2018-08-06T09:29:31.534Z,101353.99
2018-08-06T09:32:36.868Z,101350.33
2018-08-06T09:35:43.170Z,101351.75
2018-08-06T09:38:49.344Z,101353.20
2018-08-06T09:41:55.150Z,101351.11
2018-08-06T09:45:01.656Z,101352.66
2018-08-06T09:48:07.169Z,101354.19
2018-08-06T09:51:12.490Z,101352.23
2018-08-06T09:54:17.962Z,101344.66
2018-08-06T09:57:23.125Z,101348.48
2018-08-06T10:00:34.220Z,101330.53
2018-08-06T10:03:40.369Z,101327.76
2018-08-06T10:06:46.103Z,101334.23
2018-08-06T10:09:52.146Z,101325.22
2018-08-06T10:12:58.198Z,101324.93
2018-08-06T10:16:04.211Z,101323.59
2018-08-06T10:19:10.275Z,101319.69
2018-08-06T10:22:15.662Z,101317.97
2018-08-06T10:25:21.666Z,101318.16
2018-08-06T10:28:27.114Z,101311.97
2018-08-06T10:31:32.521Z,101317.92
2018-08-06T10:34:38.553Z,101315.98
2018-08-06T10:37:43.849Z,101313.73
2018-08-06T10:40:51.216Z,101305.09
2018-08-06T10:43:56.625Z,101306.97
2018-08-06T10:47:02.240Z,101295.74
2018-08-06T10:50:08.293Z,101297.30
2018-08-06T10:53:13.753Z,101301.15
2018-08-06T10:56:19.533Z,101288.45
2018-08-06T10:59:24.991Z,101292.41
2018-08-06T11:02:32.139Z,101285.57
2018-08-06T11:05:38.109Z,101286.09
2018-08-06T11:08:44.072Z,101276.92
2018-08-06T11:11:49.609Z,101266.75
2018-08-06T11:14:55.653Z,101273.06
2018-08-06T11:18:01.773Z,101260.44
2018-08-06T11:21:06.914Z,101254.26
2018-08-06T11:24:12.938Z,101240.97
2018-08-06T11:27:19.298Z,101240.16
2018-08-06T11:30:24.698Z,101241.16
2018-08-06T11:33:30.533Z,101239.41
2018-08-06T11:36:36.708Z,101240.09
2018-08-06T11:39:41.998Z,101234.72
2018-08-06T11:42:47.779Z,101231.66
2018-08-06T11:45:53.964Z,101232.53
2018-08-06T11:48:59.831Z,101231.09
2018-08-06T11:52:06.338Z,101232.27
2018-08-06T11:55:12.441Z,101230.83
2018-08-06T11:58:18.764Z,101221.14
2018-08-06T12:01:24.770Z,101211.33
2018-08-06T12:04:29.960Z,101206.24
2018-08-06T12:07:36.140Z,101208.25
2018-08-06T12:10:43.468Z,101207.44
2018-08-06T12:13:49.412Z,101205.66
2018-08-06T12:16:55.796Z,101199.15
2018-08-06T12:20:02.164Z,101188.66
2018-08-06T12:23:07.273Z,101186.84
2018-08-06T12:26:13.317Z,101189.16
2018-08-06T12:29:20.445Z,101184.41
2018-08-06T12:32:26.161Z,101179.16
2018-08-06T12:35:31.287Z,101168.12
2018-08-06T12:38:48.005Z,101173.22
2018-08-06T12:41:53.342Z,101163.38
2018-08-06T12:44:59.477Z,101165.03
2018-08-06T12:48:05.217Z,101171.27
2018-08-06T12:51:11.809Z,101166.48
2018-08-06T12:54:17.482Z,101160.72
2018-08-06T12:57:24.781Z,101161.00
2018-08-06T13:00:30.886Z,101149.13
2018-08-06T13:03:36.398Z,101149.13
2018-08-06T13:06:41.558Z,101147.12
2018-08-06T13:09:47.709Z,101146.63
2018-08-06T13:12:53.010Z,101134.25
2018-08-06T13:15:58.371Z,101142.59
2018-08-06T13:19:03.504Z,101142.56
2018-08-06T13:22:08.865Z,101134.62
2018-08-06T13:25:14.816Z,101129.80
2018-08-06T13:28:20.071Z,101117.25
2018-08-06T13:31:25.264Z,101116.68
2018-08-06T13:34:32.333Z,101115.49
2018-08-06T13:37:37.441Z,101111.48
2018-08-06T13:40:42.988Z,101107.97
2018-08-06T13:43:49.150Z,101100.64
2018-08-06T13:46:55.506Z,101097.13
2018-08-06T13:50:01.252Z,101088.33
2018-08-06T13:53:06.642Z,101088.78
2018-08-06T13:56:12.788Z,101089.72
2018-08-06T13:59:18.229Z,101089.80
2018-08-06T14:02:23.801Z,101084.66
2018-08-06T14:05:29.885Z,101075.52
2018-08-06T14:08:37.211Z,101079.38
2018-08-06T14:11:42.309Z,101076.53
2018-08-06T14:14:48.313Z,101064.58
2018-08-06T14:17:53.859Z,101067.64
2018-08-06T14:21:00.042Z,101059.84
2018-08-06T14:24:06.023Z,101057.33
2018-08-06T14:27:11.165Z,101057.80
2018-08-06T14:30:17.973Z,101061.02
2018-08-06T14:33:23.065Z,101050.41
2018-08-06T14:36:28.168Z,101047.70
2018-08-06T14:39:33.613Z,101042.03
2018-08-06T14:42:39.526Z,101038.88
2018-08-06T14:45:45.445Z,101040.14
2018-08-06T14:48:51.106Z,101027.36
2018-08-06T14:51:56.970Z,101024.30
2018-08-06T14:55:03.352Z,101026.55
2018-08-06T14:58:09.623Z,101027.95
2018-08-06T15:01:15.596Z,101024.73
2018-08-06T15:04:21.340Z,101014.98
2018-08-06T15:07:27.349Z,101014.78
2018-08-06T15:10:32.954Z,101005.52
2018-08-06T15:13:38.525Z,101010.97
2018-08-06T15:16:43.592Z,101011.78
2018-08-06T15:19:49.721Z,101004.16
2018-08-06T15:22:55.006Z,101004.16
2018-08-06T15:26:00.602Z,100999.49
2018-08-06T15:29:05.977Z,100996.73
2018-08-06T15:32:11.141Z,100995.84
2018-08-06T15:35:16.450Z,100994.08
2018-08-06T15:38:22.281Z,100984.62
2018-08-06T15:41:28.616Z,100981.48
2018-08-06T15:44:35.612Z,100987.34
2018-08-06T15:47:42.182Z,100983.73
2018-08-06T15:50:47.634Z,100980.34
2018-08-06T15:53:53.758Z,100972.64
2018-08-06T15:56:58.857Z,100970.58
2018-08-06T16:00:05.481Z,100966.34
2018-08-06T16:03:10.574Z,100958.91
2018-08-06T16:06:15.887Z,100956.15
2018-08-06T16:09:22.029Z,100958.67
2018-08-06T16:12:28.502Z,100957.03
2018-08-06T16:15:34.623Z,100957.54
2018-08-06T16:18:46.796Z,100947.34
2018-08-06T16:21:52.285Z,100946.38
2018-08-06T16:24:58.243Z,100940.97
2018-08-06T16:28:03.849Z,100944.28
2018-08-06T16:31:10.281Z,100935.06
2018-08-06T16:34:16.657Z,100929.53
2018-08-06T16:37:22.545Z,100920.16
2018-08-06T16:40:28.188Z,100922.84
2018-08-06T16:43:34.013Z,100921.84
2018-08-06T16:46:39.561Z,100924.28
2018-08-06T16:49:45.846Z,100919.78
2018-08-06T16:52:51.625Z,100913.91
2018-08-06T16:55:57.564Z,100922.39
2018-08-06T16:59:02.957Z,100920.38
2018-08-06T17:02:09.191Z,100916.19
2018-08-06T17:05:15.387Z,100912.00
2018-08-06T17:08:20.845Z,100915.20
2018-08-06T17:11:26.576Z,100910.19
2018-08-06T17:14:32.627Z,100908.13
2018-08-06T17:17:37.948Z,100907.70
2018-08-06T17:20:43.985Z,100903.14
2018-08-06T17:23:49.809Z,100905.20
2018-08-06T17:26:55.621Z,100910.72
2018-08-06T17:30:01.798Z,100907.66
2018-08-06T17:33:07.848Z,100909.21
2018-08-06T17:36:13.603Z,100903.53
2018-08-06T17:39:18.723Z,100902.27
2018-08-06T17:42:23.828Z,100898.18
2018-08-06T17:45:29.509Z,100904.32
2018-08-06T17:48:35.958Z,100900.73
2018-08-06T17:51:42.029Z,100903.23
2018-08-06T17:54:47.381Z,100899.36
2018-08-06T17:57:53.453Z,100908.77
2018-08-06T18:00:59.136Z,100908.16
2018-08-06T18:04:04.919Z,100899.44
2018-08-06T18:07:10.066Z,100902.28
2018-08-06T18:10:17.345Z,100902.64
2018-08-06T18:13:24.465Z,100897.72
2018-08-06T18:16:30.097Z,100899.56
2018-08-06T18:19:35.310Z,100896.45
2018-08-06T18:22:40.830Z,100899.93
2018-08-06T18:25:47.256Z,100899.48
2018-08-06T18:28:54.098Z,100905.59
2018-08-06T18:32:00.291Z,100908.23
2018-08-06T18:35:06.871Z,100904.48
2018-08-06T18:38:12.393Z,100900.05
2018-08-06T18:41:18.422Z,100900.38
2018-08-06T18:44:24.863Z,100898.40
2018-08-06T18:47:30.614Z,100900.21
2018-08-06T18:50:35.679Z,100905.80
2018-08-06T18:53:42.210Z,100903.52
2018-08-06T18:56:48.242Z,100899.23
2018-08-06T18:59:54.737Z,100902.05
2018-08-06T19:03:00.668Z,100904.17
2018-08-06T19:06:05.506Z,100895.28
2018-08-06T19:09:18.043Z,100901.20
2018-08-06T19:12:28.577Z,100896.89
2018-08-06T19:15:34.376Z,100897.20
2018-08-06T19:18:44.484Z,100899.16
2018-08-06T19:21:51.591Z,100902.12
2018-08-06T19:25:03.122Z,100898.64
2018-08-06T19:28:08.932Z,100906.98
2018-08-06T19:31:19.438Z,100900.55
2018-08-06T19:34:25.367Z,100902.34
2018-08-06T19:37:37.097Z,100906.41
2018-08-06T19:40:42.301Z,100898.95
2018-08-06T19:43:48.155Z,100903.33
2018-08-06T19:46:55.018Z,100901.97
2018-08-06T19:50:06.564Z,100901.30
2018-08-06T19:53:12.005Z,100900.91
2018-08-06T19:56:17.171Z,100900.37
2018-08-06T19:59:22.711Z,100897.06
2018-08-06T20:02:28.930Z,100899.95
2018-08-06T20:05:34.652Z,100893.83
2018-08-06T20:08:40.502Z,100893.61
2018-08-06T20:11:45.926Z,100889.78
2018-08-06T20:14:51.015Z,100891.23
2018-08-06T20:17:55.834Z,100880.03
2018-08-06T20:21:01.095Z,100887.70
2018-08-06T20:24:07.161Z,100883.05
2018-08-06T20:27:12.826Z,100885.92
2018-08-06T20:30:20.653Z,100883.92
2018-08-06T20:33:26.030Z,100884.84
2018-08-06T20:36:31.282Z,100889.72
2018-08-06T20:39:37.196Z,100882.75
2018-08-06T20:42:44.126Z,100886.47
2018-08-06T20:45:49.235Z,100880.14
2018-08-06T20:48:54.325Z,100885.62
2018-08-06T20:51:59.858Z,100884.77
2018-08-06T20:59:10.211Z,100894.22
2018-08-06T21:02:57.010Z,100896.77
2018-08-06T21:06:43.935Z,100895.20
2018-08-06T21:10:23.590Z,100897.85
2018-08-06T21:14:01.956Z,100894.52
2018-08-06T21:17:33.543Z,100895.23
2018-08-06T21:21:07.973Z,100900.98
2018-08-06T21:24:39.427Z,100897.66
2018-08-06T21:28:15.472Z,100892.59
2018-08-06T21:31:49.312Z,100899.54
2018-08-06T21:34:58.933Z,100893.10
2018-08-06T21:38:05.209Z,100893.88
2018-08-06T21:41:10.833Z,100884.94
2018-08-06T21:44:16.470Z,100893.89
2018-08-06T21:47:21.552Z,100895.75
2018-08-06T21:50:27.476Z,100889.51
2018-08-06T21:53:32.931Z,100892.75
2018-08-06T21:56:38.138Z,100891.25
2018-08-06T21:59:43.613Z,100892.27
2018-08-06T22:02:49.388Z,100889.72
2018-08-06T22:05:55.233Z,100887.73
2018-08-06T22:09:01.682Z,100885.84
2018-08-06T22:12:07.561Z,100885.08
2018-08-06T22:15:13.543Z,100884.83
2018-08-06T22:18:18.339Z,100893.34
2018-08-06T22:21:23.945Z,100880.55
2018-08-06T22:24:29.025Z,100882.48
2018-08-06T22:27:34.308Z,100886.80
2018-08-06T22:30:40.584Z,100882.95
2018-08-06T22:33:46.542Z,100884.30
2018-08-06T22:36:52.148Z,100888.36
2018-08-06T22:39:57.610Z,100883.22
2018-08-06T22:43:03.532Z,100879.00
2018-08-06T22:46:08.689Z,100882.23
2018-08-06T22:49:14.358Z,100881.79
2018-08-06T22:52:19.861Z,100876.02
2018-08-06T22:55:24.994Z,100871.56
2018-08-06T22:58:38.598Z,100871.47
2018-08-06T23:01:44.477Z,100874.28
2018-08-06T23:04:49.809Z,100875.34
2018-08-06T23:07:56.345Z,100873.46
2018-08-06T23:11:02.133Z,100874.83
2018-08-06T23:14:07.383Z,100873.56
2018-08-06T23:17:13.035Z,100874.17
2018-08-06T23:20:19.361Z,100870.30
2018-08-06T23:23:25.221Z,100877.22
2018-08-06T23:26:30.545Z,100867.33
2018-08-06T23:29:36.367Z,100867.84
2018-08-06T23:32:42.941Z,100872.63
2018-08-06T23:35:48.776Z,100864.70
2018-08-06T23:38:54.529Z,100858.83
2018-08-06T23:42:00.437Z,100860.53
2018-08-06T23:45:06.634Z,100851.47
2018-08-06T23:48:11.998Z,100845.31
2018-08-06T23:51:17.205Z,100847.36
2018-08-06T23:54:22.258Z,100845.39
2018-08-06T23:57:27.829Z,100844.59
